createdAt,value
2019-04-06T00:00:35.989Z,12.56
2019-04-06T00:01:36.001Z,12.69
2019-04-06T00:02:36.109Z,12.63
2019-04-06T00:03:36.014Z,12.54
2019-04-06T00:04:35.966Z,12.56
2019-04-06T00:05:35.937Z,12.54
2019-04-06T00:06:35.957Z,12.59
2019-04-06T00:07:35.931Z,12.54
2019-04-06T00:08:35.911Z,12.52
2019-04-06T00:09:35.894Z,12.54
2019-04-06T00:10:35.883Z,12.58
2019-04-06T00:11:35.873Z,12.55
2019-04-06T00:12:35.880Z,12.54
2019-04-06T00:13:36.087Z,12.48
2019-04-06T00:14:35.862Z,12.51
2019-04-06T00:15:35.890Z,12.52
2019-04-06T00:16:35.858Z,12.46
2019-04-06T00:17:35.840Z,12.51
2019-04-06T00:18:35.840Z,12.48
2019-04-06T00:19:35.843Z,12.44
2019-04-06T00:20:35.826Z,12.52
2019-04-06T00:21:35.804Z,12.49
2019-04-06T00:22:35.761Z,12.46
2019-04-06T00:23:35.756Z,12.44
2019-04-06T00:24:35.749Z,12.44
2019-04-06T00:25:43.732Z,12.46
2019-04-06T00:26:36.716Z,12.46
2019-04-06T00:27:35.718Z,12.36
2019-04-06T00:28:35.717Z,12.37
2019-04-06T00:29:35.783Z,12.36
2019-04-06T00:30:35.681Z,12.33
2019-04-06T00:31:35.683Z,12.30
2019-04-06T00:32:35.657Z,12.30
2019-04-06T00:33:35.668Z,12.30
2019-04-06T00:34:35.667Z,12.19
2019-04-06T00:35:35.629Z,12.29
2019-04-06T00:36:35.631Z,12.30
2019-04-06T00:37:35.599Z,12.26
2019-04-06T00:38:35.584Z,12.30
2019-04-06T00:39:35.581Z,12.18
2019-04-06T00:40:35.595Z,12.19
2019-04-06T00:41:35.559Z,12.34
2019-04-06T00:42:35.550Z,12.18
2019-04-06T00:43:35.534Z,12.21
2019-04-06T00:44:35.523Z,12.21
2019-04-06T00:45:35.536Z,12.18
2019-04-06T00:46:35.505Z,12.11
2019-04-06T00:47:35.496Z,12.18
2019-04-06T00:48:35.484Z,12.22
2019-04-06T00:49:35.469Z,12.25
2019-04-06T00:50:35.490Z,12.13
2019-04-06T00:51:35.458Z,12.16
2019-04-06T00:52:35.436Z,12.16
2019-04-06T00:53:35.438Z,12.15
2019-04-06T00:54:35.424Z,12.19
2019-04-06T00:55:35.414Z,12.15
2019-04-06T00:56:35.419Z,12.18
2019-04-06T00:57:35.383Z,12.18
2019-04-06T00:58:35.417Z,12.15
2019-04-06T00:59:35.383Z,12.13
2019-04-06T01:00:35.380Z,12.08
2019-04-06T01:01:35.377Z,12.23
2019-04-06T01:02:35.332Z,12.23
2019-04-06T01:03:35.321Z,12.23
2019-04-06T01:04:35.310Z,12.26
2019-04-06T01:05:35.306Z,12.15
2019-04-06T01:06:35.299Z,12.08
2019-04-06T01:07:35.308Z,12.19
2019-04-06T01:08:35.278Z,12.22
2019-04-06T01:09:35.254Z,12.15
2019-04-06T01:10:35.245Z,12.23
2019-04-06T01:11:35.243Z,12.15
2019-04-06T01:12:35.260Z,12.19
2019-04-06T01:13:35.320Z,12.21
2019-04-06T01:14:35.219Z,12.16
2019-04-06T01:15:35.199Z,12.15
2019-04-06T01:16:35.237Z,12.21
2019-04-06T01:17:35.179Z,12.18
2019-04-06T01:18:35.203Z,12.21
2019-04-06T01:19:35.158Z,12.26
2019-04-06T01:20:35.150Z,12.21
2019-04-06T01:21:35.134Z,12.22
2019-04-06T01:22:35.119Z,12.25
2019-04-06T01:23:35.114Z,12.21
2019-04-06T01:24:35.122Z,12.16
2019-04-06T01:25:35.173Z,12.15
2019-04-06T01:26:35.106Z,12.18
2019-04-06T01:27:35.079Z,12.03
2019-04-06T01:28:35.081Z,12.03
2019-04-06T01:29:35.046Z,12.03
2019-04-06T01:30:35.038Z,12.04
2019-04-06T01:31:35.144Z,12.04
2019-04-06T01:32:35.041Z,12.11
2019-04-06T01:33:35.001Z,12.03
2019-04-06T01:34:34.994Z,12.11
2019-04-06T01:35:35.097Z,11.94
2019-04-06T01:36:34.972Z,11.97
2019-04-06T01:37:34.987Z,12.00
2019-04-06T01:38:34.981Z,12.03
2019-04-06T01:39:34.955Z,11.87
2019-04-06T01:40:34.946Z,11.87
2019-04-06T01:41:34.922Z,11.90
2019-04-06T01:42:34.937Z,11.88
2019-04-06T01:43:34.895Z,11.88
2019-04-06T01:44:34.885Z,11.93
2019-04-06T01:45:34.887Z,11.98
2019-04-06T01:46:34.878Z,11.96
2019-04-06T01:47:34.855Z,11.84
2019-04-06T01:48:34.862Z,11.82
2019-04-06T01:49:34.840Z,11.85
2019-04-06T01:50:34.889Z,11.84
2019-04-06T01:51:34.827Z,11.85
2019-04-06T01:52:34.808Z,11.75
2019-04-06T01:53:34.809Z,11.77
2019-04-06T01:54:34.780Z,11.77
2019-04-06T01:55:34.768Z,11.81
2019-04-06T01:56:34.774Z,11.69
2019-04-06T01:57:34.755Z,11.74
2019-04-06T01:58:34.767Z,11.69
2019-04-06T01:59:34.731Z,11.67
2019-04-06T02:00:34.758Z,11.66
2019-04-06T02:01:34.706Z,11.67
2019-04-06T02:02:34.848Z,11.59
2019-04-06T02:03:34.694Z,11.63
2019-04-06T02:04:34.683Z,11.54
2019-04-06T02:05:34.697Z,11.59
2019-04-06T02:06:34.654Z,11.63
2019-04-06T02:07:34.668Z,11.57
2019-04-06T02:08:34.633Z,11.63
2019-04-06T02:09:34.644Z,11.56
2019-04-06T02:10:34.618Z,11.60
2019-04-06T02:11:34.623Z,11.49
2019-04-06T02:12:34.592Z,11.51
2019-04-06T02:13:34.597Z,11.51
2019-04-06T02:14:34.580Z,11.49
2019-04-06T02:15:34.603Z,11.45
2019-04-06T02:16:34.549Z,11.48
2019-04-06T02:17:34.560Z,11.41
2019-04-06T02:18:34.533Z,11.38
2019-04-06T02:19:34.536Z,11.38
2019-04-06T02:20:34.506Z,11.39
2019-04-06T02:21:34.494Z,11.38
2019-04-06T02:22:34.484Z,11.39
2019-04-06T02:23:34.479Z,11.42
2019-04-06T02:24:34.463Z,11.39
2019-04-06T02:25:34.464Z,11.38
2019-04-06T02:26:34.435Z,11.30
2019-04-06T02:27:34.424Z,11.39
2019-04-06T02:28:34.423Z,11.42
2019-04-06T02:29:34.412Z,11.35
2019-04-06T02:30:34.586Z,11.35
2019-04-06T02:31:34.391Z,11.36
2019-04-06T02:32:34.385Z,11.33
2019-04-06T02:33:34.386Z,11.39
2019-04-06T02:34:34.352Z,11.38
2019-04-06T02:35:34.353Z,11.39
2019-04-06T02:36:34.358Z,11.42
2019-04-06T02:37:34.372Z,11.35
2019-04-06T02:38:34.312Z,11.33
2019-04-06T02:39:34.301Z,11.39
2019-04-06T02:40:34.319Z,11.38
2019-04-06T02:41:34.434Z,11.39
2019-04-06T02:42:34.276Z,11.31
2019-04-06T02:43:34.265Z,11.39
2019-04-06T02:44:34.256Z,11.35
2019-04-06T02:45:34.235Z,11.33
2019-04-06T02:46:34.298Z,11.27
2019-04-06T02:47:34.211Z,11.26
2019-04-06T02:48:34.207Z,11.21
2019-04-06T02:49:34.200Z,11.20
2019-04-06T02:50:34.229Z,11.19
2019-04-06T02:51:34.197Z,11.17
2019-04-06T02:52:34.178Z,11.20
2019-04-06T02:53:34.266Z,11.08
2019-04-06T02:54:34.369Z,11.09
2019-04-06T02:55:34.132Z,11.11
2019-04-06T02:56:45.599Z,11.06
2019-04-06T02:57:35.109Z,11.06
2019-04-06T02:58:34.094Z,11.02
2019-04-06T02:59:34.083Z,10.98
2019-04-06T03:00:34.073Z,10.99
2019-04-06T03:01:34.088Z,10.94
2019-04-06T03:02:34.094Z,10.86
2019-04-06T03:03:34.046Z,10.90
2019-04-06T03:04:34.034Z,10.91
2019-04-06T03:05:34.043Z,10.87
2019-04-06T03:06:34.011Z,10.95
2019-04-06T03:07:34.003Z,10.93
2019-04-06T03:08:34.016Z,10.98
2019-04-06T03:09:33.987Z,11.02
2019-04-06T03:10:33.975Z,10.95
2019-04-06T03:11:33.957Z,10.98
2019-04-06T03:12:33.944Z,10.93
2019-04-06T03:13:33.965Z,10.93
2019-04-06T03:14:33.934Z,10.94
2019-04-06T03:15:33.925Z,10.91
2019-04-06T03:16:33.912Z,10.95
2019-04-06T03:17:33.891Z,10.93
2019-04-06T03:18:33.883Z,10.90
2019-04-06T03:19:33.901Z,10.93
2019-04-06T03:20:33.945Z,10.93
2019-04-06T03:21:33.851Z,10.93
2019-04-06T03:22:33.845Z,10.93
2019-04-06T03:23:33.826Z,10.91
2019-04-06T03:24:33.818Z,11.01
2019-04-06T03:25:33.853Z,11.03
2019-04-06T03:26:33.824Z,11.03
2019-04-06T03:27:33.792Z,10.99
2019-04-06T03:28:33.786Z,11.01
2019-04-06T03:29:33.769Z,10.95
2019-04-06T03:30:33.765Z,10.98
2019-04-06T03:31:33.939Z,10.91
2019-04-06T03:32:33.729Z,10.94
2019-04-06T03:33:33.725Z,10.93
2019-04-06T03:34:33.761Z,10.88
2019-04-06T03:35:33.719Z,10.84
2019-04-06T03:36:33.715Z,10.84
2019-04-06T03:37:33.758Z,10.78
2019-04-06T03:38:33.781Z,10.75
2019-04-06T03:39:33.665Z,10.86
2019-04-06T03:40:33.649Z,10.75
2019-04-06T03:41:33.637Z,10.80
2019-04-06T03:42:33.650Z,10.76
2019-04-06T03:43:33.612Z,10.80
2019-04-06T03:44:33.609Z,10.78
2019-04-06T03:45:33.658Z,10.80
2019-04-06T03:46:33.708Z,10.83
2019-04-06T03:47:33.577Z,10.84
2019-04-06T03:48:33.599Z,10.83
2019-04-06T03:49:33.537Z,10.83
2019-04-06T03:50:33.534Z,10.76
2019-04-06T03:51:33.518Z,10.83
2019-04-06T03:52:33.537Z,10.83
2019-04-06T03:53:33.501Z,10.87
2019-04-06T03:54:33.511Z,10.84
2019-04-06T03:55:33.558Z,10.75
2019-04-06T03:56:33.462Z,10.81
2019-04-06T03:57:33.462Z,10.84
2019-04-06T03:58:33.523Z,10.83
2019-04-06T03:59:33.466Z,10.76
2019-04-06T04:00:33.425Z,10.86
2019-04-06T04:01:33.419Z,10.75
2019-04-06T04:02:33.416Z,10.83
2019-04-06T04:03:33.386Z,10.83
2019-04-06T04:04:33.376Z,10.84
2019-04-06T04:05:33.395Z,10.80
2019-04-06T04:06:33.489Z,10.88
2019-04-06T04:07:33.371Z,10.88
2019-04-06T04:08:33.340Z,10.78
2019-04-06T04:09:33.322Z,10.70
2019-04-06T04:10:33.526Z,10.81
2019-04-06T04:11:33.319Z,10.83
2019-04-06T04:12:33.319Z,10.70
2019-04-06T04:13:33.282Z,10.93
2019-04-06T04:14:33.273Z,10.91
2019-04-06T04:15:33.652Z,10.90
2019-04-06T04:16:33.277Z,10.70
2019-04-06T04:17:33.261Z,10.72
2019-04-06T04:18:33.339Z,10.86
2019-04-06T04:19:33.265Z,10.69
2019-04-06T04:20:33.212Z,10.75
2019-04-06T04:21:33.198Z,10.76
2019-04-06T04:22:34.677Z,10.76
2019-04-06T04:23:33.244Z,10.78
2019-04-06T04:24:33.165Z,10.83
2019-04-06T04:25:33.173Z,10.84
2019-04-06T04:26:33.155Z,10.83
2019-04-06T04:27:33.197Z,10.83
2019-04-06T04:28:33.129Z,10.78
2019-04-06T04:29:33.123Z,10.83
2019-04-06T04:30:34.555Z,10.84
2019-04-06T04:31:33.114Z,10.73
2019-04-06T04:32:33.203Z,10.72
2019-04-06T04:33:33.103Z,10.78
2019-04-06T04:34:33.056Z,10.87
2019-04-06T04:35:33.062Z,10.84
2019-04-06T04:36:33.058Z,10.84
2019-04-06T04:37:33.196Z,10.88
2019-04-06T04:38:33.026Z,10.80
2019-04-06T04:39:33.043Z,10.80
2019-04-06T04:40:33.271Z,10.87
2019-04-06T04:41:32.986Z,10.87
2019-04-06T04:42:32.973Z,10.90
2019-04-06T04:43:32.964Z,10.90
2019-04-06T04:44:32.954Z,10.91
2019-04-06T04:45:32.956Z,10.90
2019-04-06T04:46:33.050Z,10.95
2019-04-06T04:47:32.918Z,10.91
2019-04-06T04:48:32.913Z,10.98
2019-04-06T04:49:32.905Z,10.91
2019-04-06T04:50:32.912Z,10.99
2019-04-06T04:51:32.896Z,11.03
2019-04-06T04:52:32.997Z,11.02
2019-04-06T04:53:32.896Z,11.01
2019-04-06T04:54:32.858Z,11.03
2019-04-06T04:55:32.842Z,10.99
2019-04-06T04:56:32.998Z,11.11
2019-04-06T04:57:40.035Z,11.01
2019-04-06T04:58:33.808Z,11.09
2019-04-06T04:59:32.792Z,11.01
2019-04-06T05:00:32.777Z,11.01
2019-04-06T05:01:32.772Z,11.05
2019-04-06T05:02:32.789Z,11.02
2019-04-06T05:03:32.756Z,11.09
2019-04-06T05:04:32.848Z,11.16
2019-04-06T05:05:32.753Z,11.27
2019-04-06T05:06:32.711Z,11.24
2019-04-06T05:07:32.711Z,11.21
2019-04-06T05:08:32.812Z,11.27
2019-04-06T05:09:32.686Z,11.35
2019-04-06T05:10:32.726Z,11.36
2019-04-06T05:11:32.686Z,11.28
2019-04-06T05:12:32.658Z,11.35
2019-04-06T05:13:32.637Z,11.33
2019-04-06T05:14:32.655Z,11.33
2019-04-06T05:15:32.624Z,11.39
2019-04-06T05:16:32.609Z,11.51
2019-04-06T05:17:32.713Z,11.64
2019-04-06T05:18:32.586Z,11.88
2019-04-06T05:19:32.576Z,12.11
2019-04-06T05:20:32.586Z,12.25
2019-04-06T05:21:32.559Z,12.29
2019-04-06T05:22:32.568Z,12.25
2019-04-06T05:23:32.535Z,12.33
2019-04-06T05:24:32.546Z,12.41
2019-04-06T05:25:32.552Z,12.49
2019-04-06T05:26:37.798Z,12.33
2019-04-06T05:27:33.512Z,12.54
2019-04-06T05:28:32.477Z,12.55
2019-04-06T05:29:33.343Z,12.54
2019-04-06T05:30:32.465Z,12.66
2019-04-06T05:31:32.447Z,12.76
2019-04-06T05:32:32.435Z,12.84
2019-04-06T05:33:32.466Z,12.81
2019-04-06T05:34:32.418Z,13.09
2019-04-06T05:35:32.427Z,13.25
2019-04-06T05:36:32.399Z,13.21
2019-04-06T05:37:32.387Z,13.27
2019-04-06T05:38:32.369Z,13.39
2019-04-06T05:39:32.357Z,13.43
2019-04-06T05:40:32.367Z,13.48
2019-04-06T05:41:32.343Z,13.55
2019-04-06T05:42:32.376Z,13.54
2019-04-06T05:43:32.332Z,13.71
2019-04-06T05:44:32.313Z,13.68
2019-04-06T05:45:32.640Z,13.76
2019-04-06T05:46:32.287Z,13.79
2019-04-06T05:47:32.445Z,13.73
2019-04-06T05:48:32.271Z,13.84
2019-04-06T05:49:32.266Z,13.96
2019-04-06T05:50:32.241Z,13.94
2019-04-06T05:51:32.257Z,14.05
2019-04-06T05:52:32.221Z,13.84
2019-04-06T05:53:32.249Z,13.80
2019-04-06T05:54:32.217Z,13.79
2019-04-06T05:55:32.195Z,13.99
2019-04-06T05:56:32.209Z,13.96
2019-04-06T05:57:32.826Z,14.08
2019-04-06T05:58:32.176Z,14.26
2019-04-06T05:59:32.146Z,14.29
2019-04-06T06:00:32.129Z,14.41
2019-04-06T06:01:32.233Z,14.71
2019-04-06T06:02:32.372Z,14.95
2019-04-06T06:03:32.101Z,15.05
2019-04-06T06:04:32.096Z,15.22
2019-04-06T06:05:32.090Z,15.04
2019-04-06T06:06:32.074Z,15.09
2019-04-06T06:07:32.099Z,14.61
2019-04-06T06:08:32.105Z,14.82
2019-04-06T06:09:32.039Z,14.72
2019-04-06T06:10:32.045Z,14.83
2019-04-06T06:11:32.014Z,14.67
2019-04-06T06:12:32.020Z,14.82
2019-04-06T06:13:31.995Z,14.95
2019-04-06T06:14:32.033Z,15.09
2019-04-06T06:15:31.980Z,15.23
2019-04-06T06:16:31.966Z,15.22
2019-04-06T06:17:32.041Z,15.00
2019-04-06T06:18:31.943Z,15.11
2019-04-06T06:19:31.954Z,15.22
2019-04-06T06:20:31.923Z,15.37
2019-04-06T06:21:32.034Z,15.22
2019-04-06T06:22:31.897Z,15.33
2019-04-06T06:23:31.882Z,15.46
2019-04-06T06:24:34.608Z,15.66
2019-04-06T06:25:31.881Z,15.96
2019-04-06T06:26:31.863Z,15.92
2019-04-06T06:27:31.849Z,15.76
2019-04-06T06:28:31.838Z,15.88
2019-04-06T06:29:31.850Z,15.95
2019-04-06T06:30:31.918Z,16.06
2019-04-06T06:31:31.800Z,15.92
2019-04-06T06:32:31.793Z,15.81
2019-04-06T06:33:31.796Z,16.01
2019-04-06T06:34:31.778Z,16.34
2019-04-06T06:35:31.776Z,16.33
2019-04-06T06:36:31.747Z,16.66
2019-04-06T06:37:31.744Z,16.65
2019-04-06T06:38:31.730Z,16.47
2019-04-06T06:39:31.721Z,16.34
2019-04-06T06:40:31.741Z,16.44
2019-04-06T06:41:31.703Z,16.59
2019-04-06T06:42:31.684Z,16.60
2019-04-06T06:43:31.675Z,16.55
2019-04-06T06:44:31.667Z,16.54
2019-04-06T06:45:31.664Z,15.92
2019-04-06T06:46:31.691Z,15.59
2019-04-06T06:47:31.637Z,15.27
2019-04-06T06:48:31.628Z,15.27
2019-04-06T06:49:31.613Z,15.33
2019-04-06T06:50:31.605Z,15.20
2019-04-06T06:51:31.676Z,14.98
2019-04-06T06:52:31.582Z,14.95
2019-04-06T06:53:31.570Z,15.34
2019-04-06T06:54:31.553Z,15.89
2019-04-06T06:55:31.565Z,15.78
2019-04-06T06:56:31.555Z,15.11
2019-04-06T06:57:31.762Z,15.34
2019-04-06T06:58:31.521Z,16.25
2019-04-06T06:59:31.535Z,16.87
2019-04-06T07:00:31.684Z,17.55
2019-04-06T07:01:31.499Z,18.09
2019-04-06T07:02:31.472Z,17.25
2019-04-06T07:03:31.463Z,16.27
2019-04-06T07:04:31.448Z,16.55
2019-04-06T07:05:31.460Z,16.16
2019-04-06T07:06:31.454Z,15.33
2019-04-06T07:07:31.451Z,15.00
2019-04-06T07:08:31.510Z,14.60
2019-04-06T07:09:31.414Z,15.04
2019-04-06T07:10:31.388Z,16.54
2019-04-06T07:11:31.383Z,17.45
2019-04-06T07:12:31.409Z,18.31
2019-04-06T07:13:31.686Z,18.69
2019-04-06T07:14:31.347Z,18.62
2019-04-06T07:15:31.336Z,19.07
2019-04-06T07:16:31.328Z,19.17
2019-04-06T07:17:31.333Z,19.10
2019-04-06T07:18:31.308Z,18.94
2019-04-06T07:19:31.313Z,18.87
2019-04-06T07:20:31.528Z,18.87
2019-04-06T07:21:31.330Z,18.51
2019-04-06T07:22:31.260Z,18.65
2019-04-06T07:23:31.250Z,19.05
2019-04-06T07:24:31.258Z,19.34
2019-04-06T07:25:31.263Z,18.97
2019-04-06T07:26:31.301Z,19.38
2019-04-06T07:27:31.389Z,19.65
2019-04-06T07:28:37.549Z,20.02
2019-04-06T07:29:32.278Z,20.05
2019-04-06T07:30:31.175Z,20.66
2019-04-06T07:31:31.162Z,21.36
2019-04-06T07:32:31.379Z,21.58
2019-04-06T07:33:31.134Z,21.26
2019-04-06T07:34:31.130Z,21.63
2019-04-06T07:35:31.145Z,22.02
2019-04-06T07:36:31.103Z,22.21
2019-04-06T07:37:31.131Z,22.20
2019-04-06T07:38:31.090Z,22.33
2019-04-06T07:39:31.263Z,22.96
2019-04-06T07:40:31.093Z,23.56
2019-04-06T07:41:31.055Z,23.71
2019-04-06T07:42:31.047Z,23.87
2019-04-06T07:43:31.036Z,24.12
2019-04-06T07:44:31.031Z,24.30
2019-04-06T07:45:31.019Z,23.89
2019-04-06T07:46:31.022Z,24.26
2019-04-06T07:47:30.983Z,24.63
2019-04-06T07:48:31.049Z,24.79
2019-04-06T07:49:30.968Z,24.49
2019-04-06T07:50:31.613Z,24.18
2019-04-06T07:51:30.966Z,23.89
2019-04-06T07:52:31.016Z,24.09
2019-04-06T07:53:30.979Z,24.70
2019-04-06T07:54:30.912Z,25.38
2019-04-06T07:55:30.908Z,25.89
2019-04-06T07:56:31.755Z,26.39
2019-04-06T07:57:30.954Z,26.66
2019-04-06T07:58:31.321Z,27.09
2019-04-06T07:59:30.875Z,27.52
2019-04-06T08:00:30.857Z,27.88
2019-04-06T08:01:30.852Z,27.87
2019-04-06T08:02:30.900Z,27.95
2019-04-06T08:03:30.938Z,28.11
2019-04-06T08:04:30.873Z,27.96
2019-04-06T08:05:30.799Z,28.14
2019-04-06T08:06:30.788Z,28.32
2019-04-06T08:07:30.782Z,28.64
2019-04-06T08:08:30.789Z,28.64
2019-04-06T08:09:30.772Z,28.91
2019-04-06T08:10:30.755Z,28.69
2019-04-06T08:11:30.752Z,28.58
2019-04-06T08:12:30.732Z,28.83
2019-04-06T08:13:30.745Z,28.91
2019-04-06T08:14:30.708Z,28.88
2019-04-06T08:15:30.954Z,29.02
2019-04-06T08:16:30.687Z,28.82
2019-04-06T08:17:30.718Z,27.95
2019-04-06T08:18:30.686Z,27.58
2019-04-06T08:19:30.773Z,27.95
2019-04-06T08:20:30.639Z,28.08
2019-04-06T08:21:30.634Z,28.09
2019-04-06T08:22:30.622Z,28.27
2019-04-06T08:23:30.727Z,28.55
2019-04-06T08:24:30.624Z,29.08
2019-04-06T08:25:30.587Z,29.20
2019-04-06T08:26:30.694Z,29.41
2019-04-06T08:27:30.573Z,29.51
2019-04-06T08:28:30.601Z,29.37
2019-04-06T08:29:30.544Z,29.35
2019-04-06T08:30:30.725Z,29.41
2019-04-06T08:31:30.709Z,29.44
2019-04-06T08:32:30.520Z,29.49
2019-04-06T08:33:30.707Z,29.60
2019-04-06T08:34:30.518Z,29.47
2019-04-06T08:35:31.490Z,29.35
2019-04-06T08:36:30.501Z,28.85
2019-04-06T08:37:30.469Z,29.02
2019-04-06T08:38:30.458Z,28.82
2019-04-06T08:39:30.466Z,28.40
2019-04-06T08:40:30.436Z,28.03
2019-04-06T08:41:30.755Z,27.88
2019-04-06T08:42:30.422Z,27.48
2019-04-06T08:43:31.400Z,26.83
2019-04-06T08:44:30.392Z,26.93
2019-04-06T08:45:30.409Z,26.93
2019-04-06T08:46:30.381Z,27.15
2019-04-06T08:47:30.424Z,27.87
2019-04-06T08:48:30.457Z,28.61
2019-04-06T08:49:30.422Z,28.97
2019-04-06T08:50:30.355Z,28.62
2019-04-06T08:51:30.321Z,27.96
2019-04-06T08:52:30.313Z,27.31
2019-04-06T08:53:30.338Z,27.61
2019-04-06T08:54:30.301Z,28.09
2019-04-06T08:55:30.288Z,28.30
2019-04-06T08:56:30.280Z,28.61
2019-04-06T08:57:30.449Z,28.57
2019-04-06T08:58:30.252Z,27.91
2019-04-06T08:59:30.405Z,26.81
2019-04-06T09:00:30.239Z,27.16
2019-04-06T09:01:30.241Z,27.61
2019-04-06T09:02:30.212Z,28.25
2019-04-06T09:03:30.209Z,28.91
2019-04-06T09:04:30.195Z,29.63
2019-04-06T09:05:30.214Z,29.44
2019-04-06T09:06:30.183Z,29.95
2019-04-06T09:07:30.293Z,30.04
2019-04-06T09:08:30.161Z,29.57
2019-04-06T09:09:30.146Z,29.12
2019-04-06T09:10:30.155Z,28.50
2019-04-06T09:11:30.127Z,28.25
2019-04-06T09:12:30.185Z,29.02
2019-04-06T09:13:30.109Z,29.81
2019-04-06T09:14:30.101Z,30.15
2019-04-06T09:15:30.114Z,30.38
2019-04-06T09:16:30.077Z,30.76
2019-04-06T09:17:30.087Z,30.98
2019-04-06T09:18:30.063Z,31.40
2019-04-06T09:19:30.050Z,31.75
2019-04-06T09:20:30.089Z,31.88
2019-04-06T09:21:30.045Z,32.02
2019-04-06T09:22:30.016Z,31.71
2019-04-06T09:23:30.263Z,31.41
2019-04-06T09:24:30.123Z,31.10
2019-04-06T09:25:30.249Z,30.40
2019-04-06T09:26:30.009Z,30.18
2019-04-06T09:27:29.970Z,30.45
2019-04-06T09:28:29.975Z,30.68
2019-04-06T09:29:29.947Z,31.31
2019-04-06T09:30:29.934Z,31.50
2019-04-06T09:31:29.950Z,31.71
2019-04-06T09:32:29.927Z,31.78
2019-04-06T09:33:29.903Z,31.62
2019-04-06T09:34:31.162Z,31.15
2019-04-06T09:35:29.886Z,30.67
2019-04-06T09:36:29.910Z,30.67
2019-04-06T09:37:30.079Z,30.79
2019-04-06T09:38:29.871Z,31.00
2019-04-06T09:39:29.857Z,31.57
2019-04-06T09:40:30.293Z,31.75
2019-04-06T09:41:29.830Z,32.13
2019-04-06T09:42:29.836Z,32.44
2019-04-06T09:43:29.824Z,32.51
2019-04-06T09:44:29.801Z,32.36
2019-04-06T09:45:29.952Z,32.71
2019-04-06T09:46:29.788Z,32.84
2019-04-06T09:47:29.789Z,31.85
2019-04-06T09:48:29.771Z,30.45
2019-04-06T09:49:29.761Z,30.11
2019-04-06T09:50:29.967Z,30.34
2019-04-06T09:51:29.746Z,30.68
2019-04-06T09:52:29.949Z,31.34
2019-04-06T09:53:29.727Z,31.62
2019-04-06T09:54:29.715Z,31.59
2019-04-06T09:55:29.700Z,31.91
2019-04-06T09:56:29.694Z,31.79
2019-04-06T09:57:29.680Z,31.95
2019-04-06T09:58:29.826Z,30.86
2019-04-06T09:59:36.044Z,29.49
2019-04-06T10:00:30.724Z,29.00
2019-04-06T10:01:38.025Z,28.73
2019-04-06T10:02:30.631Z,28.52
2019-04-06T10:03:29.720Z,28.11
2019-04-06T10:04:29.619Z,28.73
2019-04-06T10:05:29.797Z,28.08
2019-04-06T10:06:32.120Z,27.81
2019-04-06T10:07:29.581Z,28.48
2019-04-06T10:08:29.624Z,29.33
2019-04-06T10:09:29.589Z,29.99
2019-04-06T10:10:29.577Z,30.26
2019-04-06T10:11:29.654Z,30.00
2019-04-06T10:12:29.542Z,30.04
2019-04-06T10:13:29.753Z,29.14
2019-04-06T10:14:29.559Z,27.71
2019-04-06T10:15:29.517Z,27.76
2019-04-06T10:16:29.496Z,28.25
2019-04-06T10:17:29.493Z,28.60
2019-04-06T10:18:29.485Z,29.03
2019-04-06T10:19:29.487Z,29.32
2019-04-06T10:20:29.639Z,29.21
2019-04-06T10:21:29.475Z,29.03
2019-04-06T10:22:29.525Z,28.98
2019-04-06T10:23:29.448Z,29.07
2019-04-06T10:24:29.635Z,28.64
2019-04-06T10:25:29.408Z,28.38
2019-04-06T10:26:29.588Z,27.43
2019-04-06T10:27:29.528Z,27.09
2019-04-06T10:28:29.394Z,26.78
2019-04-06T10:29:29.412Z,26.69
2019-04-06T10:30:29.368Z,26.53
2019-04-06T10:31:29.473Z,26.60
2019-04-06T10:32:29.352Z,26.86
2019-04-06T10:33:29.336Z,26.66
2019-04-06T10:34:29.323Z,26.68
2019-04-06T10:35:29.346Z,26.61
2019-04-06T10:36:31.408Z,26.09
2019-04-06T10:37:29.318Z,25.74
2019-04-06T10:38:29.378Z,25.20
2019-04-06T10:39:29.285Z,24.93
2019-04-06T10:40:29.526Z,25.14
2019-04-06T10:41:29.264Z,25.16
2019-04-06T10:42:29.620Z,25.11
2019-04-06T10:43:29.392Z,25.34
2019-04-06T10:44:29.233Z,25.54
2019-04-06T10:45:29.275Z,26.20
2019-04-06T10:46:29.299Z,26.49
2019-04-06T10:47:29.197Z,27.31
2019-04-06T10:48:29.262Z,27.50
2019-04-06T10:49:29.184Z,27.03
2019-04-06T10:50:29.172Z,26.46
2019-04-06T10:51:29.410Z,26.32
2019-04-06T10:52:29.148Z,25.74
2019-04-06T10:53:29.442Z,25.67
2019-04-06T10:54:29.138Z,26.09
2019-04-06T10:55:29.272Z,26.08
2019-04-06T10:56:29.132Z,26.94
2019-04-06T10:57:29.098Z,27.42
2019-04-06T10:58:29.093Z,27.09
2019-04-06T10:59:29.078Z,27.13
2019-04-06T11:00:29.069Z,26.44
2019-04-06T11:01:29.084Z,26.28
2019-04-06T11:02:29.132Z,26.53
2019-04-06T11:03:29.049Z,26.46
2019-04-06T11:04:29.044Z,27.06
2019-04-06T11:05:29.019Z,27.46
2019-04-06T11:06:29.030Z,27.84
2019-04-06T11:07:29.096Z,28.43
2019-04-06T11:08:28.999Z,28.97
2019-04-06T11:09:29.292Z,29.20
2019-04-06T11:10:28.976Z,28.88
2019-04-06T11:11:28.999Z,28.21
2019-04-06T11:12:28.958Z,27.83
2019-04-06T11:13:28.953Z,27.43
2019-04-06T11:14:28.971Z,27.03
2019-04-06T11:15:28.931Z,26.83
2019-04-06T11:16:29.215Z,26.76
2019-04-06T11:17:29.127Z,26.29
2019-04-06T11:18:28.902Z,26.35
2019-04-06T11:19:28.964Z,26.49
2019-04-06T11:20:28.881Z,26.38
2019-04-06T11:21:28.876Z,27.02
2019-04-06T11:22:28.939Z,26.88
2019-04-06T11:23:28.852Z,27.21
2019-04-06T11:24:28.840Z,27.23
2019-04-06T11:25:28.858Z,27.69
2019-04-06T11:26:28.830Z,27.95
2019-04-06T11:27:28.868Z,27.35
2019-04-06T11:28:28.812Z,27.08
2019-04-06T11:29:28.788Z,27.50
2019-04-06T11:30:29.065Z,27.63
2019-04-06T11:31:28.841Z,28.39
2019-04-06T11:32:28.781Z,28.67
2019-04-06T11:33:28.992Z,29.03
2019-04-06T11:34:28.752Z,29.02
2019-04-06T11:35:28.742Z,29.12
2019-04-06T11:36:28.729Z,29.47
2019-04-06T11:37:28.904Z,30.06
2019-04-06T11:38:28.821Z,30.00
2019-04-06T11:39:28.738Z,30.37
2019-04-06T11:40:28.693Z,29.33
2019-04-06T11:41:28.786Z,28.32
2019-04-06T11:42:28.678Z,27.58
2019-04-06T11:43:28.683Z,27.34
2019-04-06T11:44:28.847Z,27.16
2019-04-06T11:45:28.642Z,26.93
2019-04-06T11:46:28.791Z,27.39
2019-04-06T11:47:28.805Z,27.12
2019-04-06T11:48:28.668Z,27.24
2019-04-06T11:49:28.601Z,27.93
2019-04-06T11:50:28.595Z,27.96
2019-04-06T11:51:28.799Z,28.06
2019-04-06T11:52:28.573Z,28.36
2019-04-06T11:53:28.576Z,28.61
2019-04-06T11:54:28.575Z,29.21
2019-04-06T11:55:28.547Z,28.88
2019-04-06T11:56:28.533Z,29.20
2019-04-06T11:57:28.572Z,29.49
2019-04-06T11:58:28.521Z,28.92
2019-04-06T11:59:28.528Z,28.11
2019-04-06T12:00:28.502Z,28.11
2019-04-06T12:01:28.844Z,28.24
2019-04-06T12:02:28.476Z,27.86
2019-04-06T12:03:28.469Z,28.14
2019-04-06T12:04:28.476Z,28.40
2019-04-06T12:05:28.453Z,28.83
2019-04-06T12:06:28.443Z,27.53
2019-04-06T12:07:28.439Z,26.87
2019-04-06T12:08:28.425Z,27.27
2019-04-06T12:09:28.442Z,27.31
2019-04-06T12:10:28.414Z,26.88
2019-04-06T12:11:28.401Z,27.23
2019-04-06T12:12:28.384Z,27.66
2019-04-06T12:13:28.368Z,28.14
2019-04-06T12:14:28.381Z,28.61
2019-04-06T12:15:29.780Z,28.23
2019-04-06T12:16:28.341Z,28.70
2019-04-06T12:17:28.747Z,28.32
2019-04-06T12:18:28.351Z,28.01
2019-04-06T12:19:28.453Z,27.58
2019-04-06T12:20:28.510Z,27.30
2019-04-06T12:21:28.307Z,26.66
2019-04-06T12:22:28.444Z,26.57
2019-04-06T12:23:28.440Z,26.88
2019-04-06T12:24:28.268Z,27.34
2019-04-06T12:25:28.265Z,27.49
2019-04-06T12:26:28.273Z,27.34
2019-04-06T12:27:28.552Z,27.69
2019-04-06T12:28:28.224Z,27.58
2019-04-06T12:29:28.593Z,27.35
2019-04-06T12:30:37.441Z,27.45
2019-04-06T12:31:29.223Z,27.31
2019-04-06T12:32:28.213Z,27.24
2019-04-06T12:33:28.488Z,27.90
2019-04-06T12:34:28.168Z,28.36
2019-04-06T12:35:28.337Z,28.55
2019-04-06T12:36:28.488Z,28.09
2019-04-06T12:37:28.315Z,27.77
2019-04-06T12:38:28.143Z,27.80
2019-04-06T12:39:28.127Z,27.71
2019-04-06T12:40:28.118Z,27.38
2019-04-06T12:41:28.176Z,27.61
2019-04-06T12:42:28.519Z,28.32
2019-04-06T12:43:30.809Z,28.38
2019-04-06T12:44:28.085Z,28.05
2019-04-06T12:45:28.345Z,27.46
2019-04-06T12:46:28.108Z,26.42
2019-04-06T12:47:28.583Z,26.50
2019-04-06T12:48:28.074Z,26.87
2019-04-06T12:49:28.047Z,26.23
2019-04-06T12:50:28.051Z,26.28
2019-04-06T12:51:28.025Z,27.12
2019-04-06T12:52:28.055Z,27.13